Wetterstation Tischlerei-Herzog
Wetterdaten: aktuell Mittwoch, 20.02.2019 13:15
Datum Zeit Temp. N Temp. S Temp. Htte Aussentemp. Temp.10m Temp. Bo Feuchte Htt Luftfeuchte Sonne Luftdruck Niederschl. Wind Richtung Richtung Taupunkt empf. Temp.
20.02.2019 13:15 9,1 C 10,8 C 9,6 C 9,1 C 9,0 C 1,9 C 20 % 22 % 61 % 1019,6 hPa 0,0 l/m 4,0 km/h N 355 -11,5 C 9,1 C
20.02.2019 12:15 8,5 C 13,8 C 9,0 C 8,5 C 9,0 C 1,8 C 28 % 25 % 61 % 1019,7 hPa 0,0 l/m 4,0 km/h N 355 -10,4 C 8,5 C
20.02.2019 11:15 8,0 C 8,7 C 7,8 C 8,0 C 9,0 C 1,7 C 34 % 39 % 61 % 1019,8 hPa 0,0 l/m 4,0 km/h N 355 -5,1 C 8,0 C
20.02.2019 10:15 6,5 C 8,4 C 6,0 C 6,5 C 9,0 C 1,6 C 40 % 41 % 61 % 1020,0 hPa 0,0 l/m 4,0 km/h N 355 -5,8 C 6,5 C
20.02.2019 09:15 3,6 C 4,3 C 2,9 C 3,6 C 9,0 C 1,7 C 60 % 53 % 61 % 1019,5 hPa 0,0 l/m 4,0 km/h N 355 -5,1 C 3,6 C
20.02.2019 08:15 0,9 C 1,1 C 0,3 C 0,9 C 9,0 C 1,7 C 80 % 70 % 61 % 1019,9 hPa 0,0 l/m 4,0 km/h N 355 -3,9 C 0,9 C
20.02.2019 07:15 -0,9 C -0,4 C -1,2 C -0,9 C 9,0 C 1,8 C 79 % 76 % 61 % 1019,2 hPa 0,0 l/m 4,0 km/h N 355 -4,6 C -0,9 C
20.02.2019 06:15 -2,0 C -1,4 C -1,8 C -2,0 C 9,0 C 1,9 C 75 % 78 % 61 % 1019,4 hPa 0,0 l/m 4,0 km/h N 355 -5,3 C -2,0 C
20.02.2019 05:15 -1,3 C -0,5 C -1,4 C -1,3 C 9,0 C 2,0 C 76 % 78 % 61 % 1019,2 hPa 0,0 l/m 4,0 km/h N 355 -4,6 C -1,3 C
20.02.2019 04:15 -2,3 C -1,4 C -2,0 C -2,3 C 9,0 C 2,1 C 69 % 75 % 61 % 1019,4 hPa 0,0 l/m 4,0 km/h N 355 -6,1 C -2,3 C
20.02.2019 03:15 -1,9 C -1,4 C -1,7 C -1,9 C 9,0 C 2,3 C 66 % 65 % 61 % 1018,3 hPa 0,0 l/m 4,0 km/h N 355 -7,6 C -1,9 C
20.02.2019 02:15 -0,9 C -0,8 C -1,4 C -0,9 C 9,0 C 2,5 C 65 % 62 % 61 % 1018,1 hPa 0,0 l/m 4,0 km/h N 355 -7,2 C -0,9 C
20.02.2019 01:15 0,4 C 0,5 C 0,1 C 0,4 C 9,0 C 2,6 C 64 % 60 % 61 % 1017,9 hPa 0,0 l/m 4,0 km/h N 355 -6,4 C 0,4 C
20.02.2019 00:15 0,0 C 0,7 C 0,9 C 0,0 C 9,0 C 2,7 C 62 % 55 % 61 % 1018,0 hPa 0,0 l/m 4,0 km/h N 355 -7,9 C 0,0 C
19.02.2019 22:34 0,5 C 1,0 C 1,1 C 0,5 C 9,0 C 2,8 C 59 % 58 % 61 % 1017,9 hPa 0,0 l/m 4,0 km/h N 355 -6,8 C 0,5 C
19.02.2019 21:34 1,9 C 2,4 C 2,5 C 1,9 C 9,0 C 2,9 C 57 % 55 % 61 % 1017,7 hPa 0,0 l/m 4,0 km/h N 355 -6,2 C 1,9 C
19.02.2019 20:34 3,5 C 3,6 C 3,5 C 3,5 C 9,0 C 3,0 C 55 % 49 % 61 % 1017,4 hPa 0,0 l/m 4,0 km/h N 355 -6,2 C 3,5 C
19.02.2019 19:34 3,6 C 4,3 C 4,4 C 3,6 C 9,0 C 3,0 C 49 % 47 % 61 % 1016,3 hPa 0,0 l/m 4,0 km/h N 355 -6,6 C 3,6 C
19.02.2019 18:34 3,9 C 4,7 C 4,8 C 3,9 C 9,0 C 2,9 C 47 % 47 % 61 % 1016,3 hPa 0,0 l/m 4,0 km/h N 355 -6,4 C 3,9 C
19.02.2019 17:34 5,3 C 5,9 C 6,5 C 5,3 C 9,0 C 2,9 C 34 % 40 % 61 % 1015,0 hPa 0,0 l/m 4,0 km/h N 355 -7,2 C 5,3 C
19.02.2019 16:34 7,3 C 8,1 C 8,5 C 7,3 C 9,0 C 2,8 C 20 % 32 % 61 % 1014,7 hPa 0,0 l/m 4,0 km/h N 355 -8,3 C 7,3 C
19.02.2019 15:34 8,1 C 11,7 C 9,4 C 8,1 C 9,0 C 2,7 C 20 % 32 % 61 % 1014,5 hPa 0,0 l/m 4,0 km/h N 355 -7,6 C 8,1 C
19.02.2019 14:34 9,1 C 11,6 C 10,0 C 9,1 C 9,0 C 2,6 C 20 % 31 % 61 % 1013,3 hPa 0,0 l/m 4,0 km/h N 355 -7,1 C 9,1 C
19.02.2019 14:04 7,3 C 7,8 C 7,3 C 7,3 C 9,0 C 2,5 C 40 % 38 % 61 % 1013,6 hPa 0,0 l/m 4,0 km/h N 355 -6,1 C 7,3 C
_ Min-Zeit 03:20 03:40 03:40 03:20 14:04 10:05 14:29 12:45 - 14:59 - 14:04 - - 12:45 03:20
Minimum _ -2,4 C -1,8 C -2,3 C -2,4 C 9,0 C 1,6 C 20 % 20 % - 1013,3 hPa - 4,0 km/h - - -12,8 C -2,4 C
_ Max-Zeit 14:59 12:15 14:54 14:59 14:04 18:39 07:45 04:30 14:04 09:45 14:04 14:04 - - 08:25 14:59
Maximum _ 9,2 C 13,8 C 10,4 C 9,2 C 9,0 C 3,0 C 81 % 79 % 61 % 1020,2 hPa 0,0 l/m 4,0 km/h
N
- - -3,5 C 9,2 C
Durchschnitt _ 3,3 C 4,1 C 3,5 C 3,3 C 9,0 C 2,4 C 51 % 52 % #0 min. 1017,5 hPa #0,0 l/m 4,0 km/h N - -6,4 C 3,3 C
Tischlerei Herzog